createdAt,value
2023-01-20T00:01:12.075Z,16.00
2023-01-20T00:03:39.959Z,15.57
2023-01-20T00:06:07.693Z,16.75
2023-01-20T00:08:35.222Z,17.20
2023-01-20T00:11:07.139Z,16.73
2023-01-20T00:13:35.060Z,15.75
2023-01-20T00:16:04.084Z,17.75
2023-01-20T00:18:31.590Z,15.68
2023-01-20T00:21:02.748Z,16.30
2023-01-20T00:23:30.506Z,14.77
2023-01-20T00:25:57.921Z,16.50
2023-01-20T00:28:25.268Z,16.52
2023-01-20T00:30:52.667Z,15.80
2023-01-20T00:33:19.978Z,15.48
2023-01-20T00:35:47.360Z,17.35
2023-01-20T00:38:15.364Z,16.85
2023-01-20T00:40:42.759Z,18.08
2023-01-20T00:43:12.042Z,16.50
2023-01-20T00:45:39.349Z,18.40
2023-01-20T00:48:07.225Z,15.73
2023-01-20T00:50:34.628Z,17.17
2023-01-20T00:53:01.959Z,16.25
2023-01-20T00:55:29.378Z,16.52
2023-01-20T00:57:56.759Z,17.63
2023-01-20T01:00:24.247Z,17.42
2023-01-20T01:02:54.168Z,18.45
2023-01-20T01:06:06.627Z,15.98
2023-01-20T01:08:35.072Z,18.25
2023-01-20T01:11:02.486Z,18.10
2023-01-20T01:13:29.863Z,17.23
2023-01-20T01:15:57.314Z,18.23
2023-01-20T01:18:24.744Z,17.60
2023-01-20T01:20:52.172Z,18.23
2023-01-20T01:23:19.678Z,18.02
2023-01-20T01:25:47.138Z,17.23
2023-01-20T01:28:14.897Z,17.92
2023-01-20T01:30:42.350Z,18.35
2023-01-20T01:33:09.830Z,18.30
2023-01-20T01:35:37.212Z,16.73
2023-01-20T01:38:04.599Z,18.08
2023-01-20T01:40:31.993Z,17.67
2023-01-20T01:42:59.477Z,20.42
2023-01-20T01:45:27.878Z,18.27
2023-01-20T01:47:58.894Z,17.75
2023-01-20T01:50:29.183Z,19.30
2023-01-20T01:52:57.388Z,20.00
2023-01-20T01:55:27.410Z,19.10
2023-01-20T01:57:55.416Z,21.33
2023-01-20T02:00:22.795Z,20.63
2023-01-20T02:02:50.215Z,19.50
2023-01-20T02:05:18.539Z,17.50
2023-01-20T02:07:47.392Z,16.88
2023-01-20T02:10:16.622Z,17.95
2023-01-20T02:12:47.381Z,19.52
2023-01-20T02:15:15.426Z,18.92
2023-01-20T02:17:53.969Z,19.83
2023-01-20T02:20:41.288Z,19.33
2023-01-20T02:23:28.523Z,17.00
2023-01-20T02:26:15.731Z,17.60
2023-01-20T02:29:03.178Z,16.80
2023-01-20T02:31:46.785Z,15.73
2023-01-20T02:34:17.855Z,17.77
2023-01-20T02:36:48.325Z,16.35
2023-01-20T02:39:27.122Z,12.85
2023-01-20T02:41:59.901Z,16.65
2023-01-20T02:44:32.261Z,17.73
2023-01-20T02:47:19.473Z,18.55
2023-01-20T02:49:56.890Z,16.52
2023-01-20T02:52:27.381Z,19.67
2023-01-20T02:54:57.153Z,20.77
2023-01-20T02:57:28.709Z,18.85
2023-01-20T02:59:57.991Z,18.50
2023-01-20T03:02:26.643Z,19.88
2023-01-20T03:04:58.539Z,16.30
2023-01-20T03:07:28.453Z,20.45
2023-01-20T03:09:57.034Z,19.00
2023-01-20T03:12:27.877Z,17.85
2023-01-20T03:14:55.389Z,19.92
2023-01-20T03:17:23.688Z,20.20
2023-01-20T03:19:51.098Z,20.88
2023-01-20T03:22:18.532Z,18.17
2023-01-20T03:24:47.379Z,19.02
2023-01-20T03:27:15.027Z,18.63
2023-01-20T03:29:42.376Z,20.20
2023-01-20T03:32:11.035Z,17.65
2023-01-20T03:34:40.661Z,18.67
2023-01-20T03:37:08.311Z,18.77
2023-01-20T03:39:39.821Z,17.70
2023-01-20T03:42:27.094Z,20.65
2023-01-20T03:45:14.627Z,20.30
2023-01-20T03:48:01.963Z,20.38
2023-01-20T03:50:49.166Z,19.38
2023-01-20T03:53:37.538Z,20.67
2023-01-20T03:56:08.801Z,19.38
2023-01-20T03:58:38.243Z,20.25
2023-01-20T04:01:09.470Z,19.90
2023-01-20T04:03:46.730Z,20.38
2023-01-20T04:06:15.679Z,20.27
2023-01-20T04:08:47.164Z,20.30
2023-01-20T04:11:14.548Z,21.13
2023-01-20T04:13:41.965Z,18.83
2023-01-20T04:16:12.919Z,17.80
2023-01-20T04:18:42.440Z,20.00
2023-01-20T04:21:11.281Z,20.23
2023-01-20T04:23:44.814Z,20.35
2023-01-20T04:26:12.078Z,22.02
2023-01-20T04:28:39.387Z,23.48
2023-01-20T04:31:08.641Z,23.95
2023-01-20T04:33:39.057Z,23.33
2023-01-20T04:36:07.470Z,23.15
2023-01-20T04:38:34.783Z,22.45
2023-01-20T04:41:03.642Z,22.95
2023-01-20T04:43:31.020Z,24.20
2023-01-20T04:45:58.400Z,23.98
2023-01-20T04:48:25.785Z,21.27
2023-01-20T04:50:53.167Z,21.75
2023-01-20T04:53:20.528Z,22.67
2023-01-20T04:55:47.958Z,19.10
2023-01-20T04:58:15.375Z,22.95
2023-01-20T05:00:43.773Z,23.13
2023-01-20T05:03:11.427Z,19.95
2023-01-20T05:05:38.827Z,21.88
2023-01-20T05:08:06.494Z,20.92
2023-01-20T05:10:34.131Z,18.35
2023-01-20T05:13:02.027Z,22.52
2023-01-20T05:15:29.428Z,23.83
2023-01-20T05:17:56.827Z,23.60
2023-01-20T05:20:24.167Z,21.98
2023-01-20T05:22:51.504Z,20.95
2023-01-20T05:25:18.807Z,22.77
2023-01-20T05:27:46.228Z,21.90
2023-01-20T05:30:13.727Z,21.77
2023-01-20T05:32:41.151Z,21.25
2023-01-20T05:35:09.051Z,19.73
2023-01-20T05:37:36.425Z,20.25
2023-01-20T05:40:03.746Z,20.65
2023-01-20T05:42:33.022Z,20.80
2023-01-20T05:45:00.357Z,24.40
2023-01-20T05:47:27.742Z,22.80
2023-01-20T05:49:55.041Z,22.00
2023-01-20T05:52:22.489Z,21.05
2023-01-20T05:54:50.136Z,21.20
2023-01-20T05:57:18.865Z,23.33
2023-01-20T05:59:48.103Z,24.63
2023-01-20T06:02:18.773Z,22.25
2023-01-20T06:04:49.802Z,22.88
2023-01-20T06:07:17.235Z,21.80
2023-01-20T06:09:44.586Z,19.40
2023-01-20T06:12:12.123Z,22.27
2023-01-20T06:14:39.513Z,22.85
2023-01-20T06:17:06.923Z,20.35
2023-01-20T06:19:34.305Z,18.70
2023-01-20T06:22:01.695Z,18.63
2023-01-20T06:24:29.009Z,17.73
2023-01-20T06:26:56.383Z,19.23
2023-01-20T06:29:23.984Z,21.25
2023-01-20T06:31:51.411Z,20.98
2023-01-20T06:34:18.785Z,22.20
2023-01-20T06:36:46.129Z,22.10
2023-01-20T06:39:13.460Z,22.63
2023-01-20T06:41:40.985Z,20.02
2023-01-20T06:44:08.360Z,21.48
2023-01-20T06:46:35.711Z,23.15
2023-01-20T06:49:03.207Z,20.23
2023-01-20T06:51:31.256Z,21.63
2023-01-20T06:53:58.910Z,23.47
2023-01-20T06:56:26.294Z,19.98
2023-01-20T06:58:53.708Z,27.58
2023-01-20T07:01:25.648Z,20.70
2023-01-20T07:03:53.356Z,21.60
2023-01-20T07:06:38.576Z,21.15
2023-01-20T07:09:06.920Z,21.92
2023-01-20T07:11:35.899Z,21.40
2023-01-20T07:14:03.949Z,22.25
2023-01-20T07:16:31.772Z,22.25
2023-01-20T07:18:59.388Z,19.85
2023-01-20T07:21:27.044Z,21.52
2023-01-20T07:23:54.440Z,21.55
2023-01-20T07:26:24.472Z,20.70
2023-01-20T07:28:52.233Z,20.40
2023-01-20T07:31:20.810Z,21.38
2023-01-20T07:33:48.481Z,20.60
2023-01-20T07:36:16.633Z,21.10
2023-01-20T07:38:44.613Z,24.55
2023-01-20T07:41:16.248Z,22.23
2023-01-20T07:43:44.533Z,21.83
2023-01-20T07:46:12.286Z,21.00
2023-01-20T07:48:39.811Z,21.92
2023-01-20T07:51:08.310Z,21.15
2023-01-20T07:53:37.299Z,21.00
2023-01-20T07:56:05.456Z,21.88
2023-01-20T07:58:33.065Z,20.05
2023-01-20T08:01:07.318Z,21.45
2023-01-20T08:03:34.804Z,20.77
2023-01-20T08:06:04.285Z,21.35
2023-01-20T08:08:32.834Z,21.50
2023-01-20T08:11:01.509Z,20.55
2023-01-20T08:13:29.298Z,22.00
2023-01-20T08:15:56.976Z,18.63
2023-01-20T08:18:24.310Z,19.50
2023-01-20T08:20:51.741Z,19.40
2023-01-20T08:23:19.063Z,21.08
2023-01-20T08:25:58.576Z,21.63
2023-01-20T08:28:26.195Z,20.08
2023-01-20T08:30:53.791Z,19.83
2023-01-20T08:33:21.394Z,20.77
2023-01-20T08:35:48.935Z,19.80
2023-01-20T08:38:16.322Z,21.45
2023-01-20T08:40:44.289Z,18.55
2023-01-20T08:43:12.159Z,19.52
2023-01-20T08:45:40.042Z,22.38
2023-01-20T08:48:08.798Z,24.08
2023-01-20T08:50:36.870Z,21.90
2023-01-20T08:53:04.369Z,22.77
2023-01-20T08:55:31.773Z,22.58
2023-01-20T08:57:59.198Z,22.33
2023-01-20T09:00:26.630Z,22.25
2023-01-20T09:02:54.044Z,21.73
2023-01-20T09:05:22.503Z,21.65
2023-01-20T09:07:49.888Z,27.27
2023-01-20T09:10:17.327Z,25.35
2023-01-20T09:12:45.890Z,26.17
2023-01-20T09:15:13.739Z,29.23
2023-01-20T09:17:41.320Z,28.38
2023-01-20T09:20:09.381Z,27.45
2023-01-20T09:22:36.695Z,28.23
2023-01-20T09:25:04.199Z,27.63
2023-01-20T09:27:31.569Z,25.20
2023-01-20T09:29:59.486Z,22.38
2023-01-20T09:32:26.865Z,23.50
2023-01-20T09:34:54.205Z,25.02
2023-01-20T09:37:50.677Z,24.00
2023-01-20T09:40:43.085Z,24.08
2023-01-20T09:43:49.422Z,24.88
2023-01-20T09:46:37.564Z,25.02
2023-01-20T09:49:44.684Z,24.85
2023-01-20T09:52:44.821Z,22.77
2023-01-20T09:55:15.019Z,23.58
2023-01-20T09:57:43.914Z,24.63
2023-01-20T10:00:17.520Z,24.67
2023-01-20T10:02:48.580Z,26.63
2023-01-20T10:05:20.440Z,25.00
2023-01-20T10:08:07.641Z,23.98
2023-01-20T10:10:39.757Z,25.80
2023-01-20T10:13:14.409Z,22.00
2023-01-20T10:15:44.735Z,23.45
2023-01-20T10:18:32.473Z,22.63
2023-01-20T10:21:02.489Z,24.20
2023-01-20T10:23:34.676Z,25.27
2023-01-20T10:26:21.822Z,24.23
2023-01-20T10:28:56.365Z,30.73
2023-01-20T10:31:27.972Z,29.05
2023-01-20T10:33:57.674Z,23.35
2023-01-20T10:36:28.480Z,23.30
2023-01-20T10:39:15.643Z,21.13
2023-01-20T10:41:46.334Z,23.13
2023-01-20T10:44:14.630Z,24.92
2023-01-20T10:47:01.971Z,26.40
2023-01-20T10:49:52.410Z,26.02
2023-01-20T10:52:29.926Z,24.17
2023-01-20T10:55:05.975Z,23.25
2023-01-20T10:57:33.779Z,25.60
2023-01-20T11:00:03.116Z,25.75
2023-01-20T11:02:32.230Z,26.38
2023-01-20T11:05:19.550Z,22.67
2023-01-20T11:07:47.813Z,23.60
2023-01-20T11:10:17.346Z,23.40
2023-01-20T11:12:46.102Z,25.83
2023-01-20T11:15:19.001Z,24.73
2023-01-20T11:17:46.380Z,26.90
2023-01-20T11:20:19.599Z,24.38
2023-01-20T11:22:48.524Z,23.88
2023-01-20T11:25:31.494Z,23.42
2023-01-20T11:27:59.829Z,23.20
2023-01-20T11:30:29.129Z,21.48
2023-01-20T11:33:16.381Z,20.77
2023-01-20T11:35:58.160Z,23.15
2023-01-20T11:38:45.405Z,22.98
2023-01-20T11:41:21.584Z,25.63
2023-01-20T11:43:49.681Z,24.77
2023-01-20T11:46:37.908Z,21.65
2023-01-20T11:49:23.214Z,21.70
2023-01-20T11:52:10.397Z,21.90
2023-01-20T11:54:38.013Z,20.35
2023-01-20T11:57:08.026Z,22.42
2023-01-20T11:59:36.501Z,24.45
2023-01-20T12:02:24.187Z,26.70
2023-01-20T12:05:12.821Z,26.67
2023-01-20T12:08:00.330Z,26.20
2023-01-20T12:10:30.336Z,28.48
2023-01-20T12:13:02.813Z,25.42
2023-01-20T12:15:34.550Z,24.60
2023-01-20T12:18:09.534Z,23.17
2023-01-20T12:20:54.511Z,21.10
2023-01-20T12:23:45.793Z,20.65
2023-01-20T12:26:15.529Z,21.15
2023-01-20T12:28:49.196Z,19.48
2023-01-20T12:31:20.280Z,19.17
2023-01-20T12:33:50.337Z,20.50
2023-01-20T12:36:37.489Z,20.92
2023-01-20T12:39:13.501Z,21.10
2023-01-20T12:42:02.858Z,21.27
2023-01-20T12:44:50.217Z,22.25
2023-01-20T12:47:37.485Z,20.52
2023-01-20T12:50:24.759Z,22.10
2023-01-20T12:52:59.398Z,24.65
2023-01-20T12:55:46.677Z,26.10
2023-01-20T12:58:29.156Z,25.58
2023-01-20T13:01:16.979Z,24.47
2023-01-20T13:04:04.246Z,25.50
2023-01-20T13:06:51.571Z,24.42
2023-01-20T13:09:39.140Z,23.40
2023-01-20T13:12:26.377Z,21.88
2023-01-20T13:14:59.420Z,23.35
2023-01-20T13:17:32.862Z,24.77
2023-01-20T13:20:02.373Z,23.35
2023-01-20T13:22:30.646Z,22.70
2023-01-20T13:24:59.329Z,22.80
2023-01-20T13:27:29.648Z,21.63
2023-01-20T13:29:58.508Z,22.63
2023-01-20T13:32:45.738Z,25.70
2023-01-20T13:35:34.213Z,25.67
2023-01-20T13:38:02.424Z,23.65
2023-01-20T13:40:49.360Z,25.52
2023-01-20T13:43:36.543Z,24.15
2023-01-20T13:46:23.896Z,26.10
2023-01-20T13:49:11.130Z,25.33
2023-01-20T13:51:58.370Z,25.35
2023-01-20T13:54:43.697Z,23.80
2023-01-20T13:57:31.550Z,17.85
2023-01-20T13:59:59.039Z,22.92
2023-01-20T14:02:28.974Z,22.67
2023-01-20T14:04:58.766Z,23.55
2023-01-20T14:07:27.219Z,26.25
2023-01-20T14:09:55.622Z,25.75
2023-01-20T14:12:23.244Z,24.77
2023-01-20T14:14:52.309Z,26.15
2023-01-20T14:17:21.073Z,26.63
2023-01-20T14:19:49.454Z,24.83
2023-01-20T14:22:19.626Z,24.63
2023-01-20T14:24:48.720Z,23.55
2023-01-20T14:27:20.841Z,26.00
2023-01-20T14:29:49.131Z,24.52
2023-01-20T14:32:22.574Z,22.58
2023-01-20T14:34:50.294Z,23.98
2023-01-20T14:37:23.723Z,23.15
2023-01-20T14:39:51.561Z,22.80
2023-01-20T14:42:20.072Z,22.65
2023-01-20T14:44:48.128Z,24.35
2023-01-20T14:47:15.552Z,21.80
2023-01-20T14:49:43.729Z,23.73
2023-01-20T14:52:15.152Z,25.05
2023-01-20T14:54:44.336Z,24.27
2023-01-20T14:57:19.124Z,24.33
2023-01-20T14:59:46.494Z,23.02
2023-01-20T15:02:33.752Z,24.05
2023-01-20T15:05:01.395Z,26.92
2023-01-20T15:07:29.203Z,28.08
2023-01-20T15:10:03.206Z,24.40
2023-01-20T15:12:42.517Z,24.27
2023-01-20T15:15:29.796Z,25.63
2023-01-20T15:18:17.542Z,29.00
2023-01-20T15:20:47.157Z,46.28
2023-01-20T15:23:16.909Z,37.55
2023-01-20T15:25:44.362Z,28.17
2023-01-20T15:28:28.708Z,26.75
2023-01-20T15:30:57.638Z,30.17
2023-01-20T15:33:25.944Z,27.60
2023-01-20T15:35:54.727Z,30.55
2023-01-20T15:38:22.193Z,29.73
2023-01-20T15:40:50.134Z,32.25
2023-01-20T15:43:18.194Z,32.53
2023-01-20T15:45:46.183Z,35.03
2023-01-20T15:48:16.040Z,36.05
2023-01-20T15:50:43.721Z,36.75
2023-01-20T15:53:12.721Z,33.85
2023-01-20T15:55:49.207Z,33.08
2023-01-20T15:58:21.810Z,34.22
2023-01-20T16:00:49.178Z,32.63
2023-01-20T16:03:16.648Z,35.10
2023-01-20T16:05:43.988Z,34.38
2023-01-20T16:08:20.017Z,33.38
2023-01-20T16:10:47.839Z,34.15
2023-01-20T16:13:15.533Z,34.88
2023-01-20T16:15:43.399Z,35.65
2023-01-20T16:18:13.523Z,35.63
2023-01-20T16:20:41.049Z,36.95
2023-01-20T16:23:08.697Z,40.17
2023-01-20T16:25:36.236Z,35.97
2023-01-20T16:28:09.083Z,34.15
2023-01-20T16:30:36.528Z,36.05
2023-01-20T16:33:03.820Z,36.63
2023-01-20T16:35:31.199Z,48.80
2023-01-20T16:37:58.607Z,46.90
2023-01-20T16:40:26.364Z,38.10
2023-01-20T16:42:56.248Z,38.67
2023-01-20T16:45:25.068Z,36.50
2023-01-20T16:47:52.726Z,35.47
2023-01-20T16:50:20.160Z,35.13
2023-01-20T16:52:47.573Z,31.02
2023-01-20T16:55:15.011Z,33.92
2023-01-20T16:57:43.437Z,35.05
2023-01-20T17:00:11.250Z,30.80
2023-01-20T17:02:39.193Z,32.42
2023-01-20T17:05:07.989Z,32.75
2023-01-20T17:07:35.820Z,31.25
2023-01-20T17:10:03.538Z,31.63
2023-01-20T17:12:30.920Z,33.85
2023-01-20T17:14:58.259Z,34.20
2023-01-20T17:17:25.644Z,33.08
2023-01-20T17:19:52.993Z,32.38
2023-01-20T17:22:20.374Z,31.27
2023-01-20T17:24:47.771Z,33.45
2023-01-20T17:27:15.160Z,31.58
2023-01-20T17:29:42.514Z,32.65
2023-01-20T17:32:09.883Z,31.27
2023-01-20T17:34:37.282Z,32.42
2023-01-20T17:37:04.907Z,29.17
2023-01-20T17:39:32.410Z,33.90
2023-01-20T17:41:59.785Z,32.90
2023-01-20T17:44:27.175Z,33.03
2023-01-20T17:46:54.565Z,32.42
2023-01-20T17:49:21.912Z,31.10
2023-01-20T17:51:49.305Z,29.85
2023-01-20T17:54:16.744Z,32.72
2023-01-20T17:56:44.099Z,31.10
2023-01-20T17:59:11.532Z,29.75
2023-01-20T18:01:38.979Z,32.55
2023-01-20T18:04:10.355Z,32.80
2023-01-20T18:06:38.754Z,35.13
2023-01-20T18:09:07.244Z,34.28
2023-01-20T18:11:36.126Z,35.35
2023-01-20T18:14:04.107Z,36.38
2023-01-20T18:16:33.144Z,35.42
2023-01-20T18:19:00.498Z,32.15
2023-01-20T18:21:29.980Z,33.05
2023-01-20T18:23:57.892Z,34.92
2023-01-20T18:26:26.602Z,35.92
2023-01-20T18:28:55.203Z,35.75
2023-01-20T18:31:23.797Z,37.92
2023-01-20T18:33:52.665Z,42.38
2023-01-20T18:36:23.722Z,31.45
2023-01-20T18:38:52.039Z,31.98
2023-01-20T18:41:19.951Z,31.63
2023-01-20T18:43:47.826Z,33.25
2023-01-20T18:46:15.300Z,32.03
2023-01-20T18:48:45.898Z,32.00
2023-01-20T18:51:15.477Z,33.35
2023-01-20T18:53:43.656Z,34.58
2023-01-20T18:56:12.149Z,36.65
2023-01-20T18:58:39.637Z,33.70
2023-01-20T19:01:08.405Z,38.97
2023-01-20T19:03:36.413Z,36.75
2023-01-20T19:06:05.168Z,37.25
2023-01-20T19:08:32.855Z,34.47
2023-01-20T19:11:01.077Z,34.20
2023-01-20T19:13:28.670Z,32.22
2023-01-20T19:15:56.049Z,31.48
2023-01-20T19:18:24.132Z,32.65
2023-01-20T19:20:52.101Z,30.50
2023-01-20T19:23:19.759Z,35.92
2023-01-20T19:25:47.271Z,34.47
2023-01-20T19:28:14.726Z,31.02
2023-01-20T19:30:42.243Z,27.60
2023-01-20T19:33:12.255Z,28.48
2023-01-20T19:35:42.013Z,29.35
2023-01-20T19:38:09.624Z,30.00
2023-01-20T19:40:37.010Z,30.50
2023-01-20T19:43:06.267Z,29.55
2023-01-20T19:45:45.342Z,29.73
2023-01-20T19:48:13.321Z,28.88
2023-01-20T19:50:41.947Z,29.70
2023-01-20T19:53:09.238Z,29.77
2023-01-20T19:55:36.609Z,32.33
2023-01-20T19:58:03.949Z,32.53
2023-01-20T20:00:31.381Z,29.35
2023-01-20T20:02:58.836Z,32.63
2023-01-20T20:05:26.202Z,36.10
2023-01-20T20:07:53.631Z,36.65
2023-01-20T20:10:21.016Z,34.00
2023-01-20T20:12:48.937Z,35.08
2023-01-20T20:15:16.407Z,36.92
2023-01-20T20:17:43.864Z,35.92
2023-01-20T20:20:11.698Z,35.95
2023-01-20T20:22:39.135Z,37.65
2023-01-20T20:25:09.901Z,39.72
2023-01-20T20:27:38.729Z,37.47
2023-01-20T20:30:07.031Z,36.53
2023-01-20T20:32:34.410Z,35.35
2023-01-20T20:35:01.817Z,35.33
2023-01-20T20:37:29.300Z,38.47
2023-01-20T20:39:56.628Z,38.35
2023-01-20T20:42:24.191Z,37.55
2023-01-20T20:44:51.563Z,40.97
2023-01-20T20:47:20.358Z,41.97
2023-01-20T20:49:47.738Z,47.10
2023-01-20T20:52:15.175Z,44.72
2023-01-20T20:54:42.589Z,46.88
2023-01-20T20:57:09.920Z,44.85
2023-01-20T20:59:47.253Z,42.92
2023-01-20T21:02:25.051Z,42.65
2023-01-20T21:04:52.535Z,38.47
2023-01-20T21:07:19.970Z,39.42
2023-01-20T21:09:47.995Z,39.30
2023-01-20T21:12:15.405Z,41.25
2023-01-20T21:14:43.483Z,43.42
2023-01-20T21:17:10.929Z,39.47
2023-01-20T21:19:38.315Z,41.33
2023-01-20T21:22:06.161Z,44.13
2023-01-20T21:24:33.505Z,42.13
2023-01-20T21:27:01.540Z,44.13
2023-01-20T21:29:28.968Z,43.20
2023-01-20T21:31:57.621Z,41.67
2023-01-20T21:34:24.994Z,42.35
2023-01-20T21:36:52.413Z,41.78
2023-01-20T21:39:20.716Z,38.47
2023-01-20T21:41:48.279Z,36.83
2023-01-20T21:44:36.069Z,38.22
2023-01-20T21:47:04.743Z,36.72
2023-01-20T21:49:52.008Z,35.20
2023-01-20T21:52:40.295Z,34.13
2023-01-20T21:55:08.600Z,35.17
2023-01-20T21:57:35.970Z,32.83
2023-01-20T22:00:05.035Z,31.30
2023-01-20T22:02:32.474Z,30.30
2023-01-20T22:04:59.923Z,32.67
2023-01-20T22:07:27.224Z,30.90
2023-01-20T22:09:57.116Z,31.02
2023-01-20T22:12:25.347Z,29.05
2023-01-20T22:14:52.759Z,33.33
2023-01-20T22:17:20.483Z,33.80
2023-01-20T22:19:47.908Z,34.15
2023-01-20T22:22:15.515Z,34.33
2023-01-20T22:24:43.027Z,32.40
2023-01-20T22:27:10.399Z,33.58
2023-01-20T22:29:37.757Z,31.90
2023-01-20T22:32:05.283Z,30.70
2023-01-20T22:34:32.833Z,31.25
2023-01-20T22:37:00.834Z,30.88
2023-01-20T22:39:28.465Z,30.08
2023-01-20T22:41:55.860Z,30.17
2023-01-20T22:44:23.231Z,31.40
2023-01-20T22:46:50.715Z,30.20
2023-01-20T22:49:18.139Z,30.77
2023-01-20T22:51:45.517Z,29.20
2023-01-20T22:54:13.000Z,31.13
2023-01-20T22:56:40.335Z,30.98
2023-01-20T22:59:07.811Z,29.63
2023-01-20T23:01:36.735Z,29.90
2023-01-20T23:04:05.730Z,28.55
2023-01-20T23:06:33.960Z,27.55
2023-01-20T23:09:01.969Z,28.15
2023-01-20T23:11:29.410Z,27.75
2023-01-20T23:13:56.805Z,27.15
2023-01-20T23:16:24.590Z,28.42
2023-01-20T23:18:52.500Z,27.23
2023-01-20T23:21:20.331Z,26.08
2023-01-20T23:23:54.364Z,26.70
2023-01-20T23:26:23.539Z,25.42
2023-01-20T23:28:50.898Z,25.75
2023-01-20T23:31:18.776Z,25.42
2023-01-20T23:33:46.223Z,25.15
2023-01-20T23:36:15.625Z,26.30
2023-01-20T23:38:43.960Z,24.30
2023-01-20T23:41:11.672Z,23.10
2023-01-20T23:43:39.129Z,22.95
2023-01-20T23:46:07.009Z,24.08
2023-01-20T23:48:35.217Z,23.65
2023-01-20T23:51:03.035Z,23.65
2023-01-20T23:53:31.623Z,26.70
2023-01-20T23:56:03.000Z,25.50
2023-01-20T23:58:30.327Z,25.40
